Date,TemperatureHighF,TemperatureAvgF,TemperatureLowF,DewpointHighF,DewpointAvgF,DewpointLowF,HumidityHigh,HumidityAvg,HumidityLow,PressureMaxIn,PressureMinIn,WindSpeedMaxMPH,WindSpeedAvgMPH,GustSpeedMaxMPH,PrecipitationSumIn
2013-3-1,44.9,40.1,34.4,34.6,31.7,28.8,88,72,58,29.81,29.66,9,4,16,0.00
2013-3-2,41.2,36.6,31.5,29.1,26.5,24.9,79,67,55,29.83,29.73,8,4,11,0.00
2013-3-3,38.5,34.5,31.6,25.6,22.4,18.6,71,61,49,29.81,29.72,9,5,16,0.00
2013-3-4,40.8,35.3,31.2,24.7,22.5,19.3,68,59,51,29.97,29.80,11,7,22,0.00
2013-3-5,44.1,35.5,29.4,32.5,26.8,22.3,91,71,57,30.04,29.89,8,3,13,0.00
2013-3-6,41.0,38.8,33.6,39.1,36.6,31.3,94,92,83,29.89,29.54,16,9,30,1.63
2013-3-7,46.7,40.4,34.6,33.7,32.2,29.8,94,73,56,30.07,29.82,10,6,19,0.06
2013-3-8,41.1,36.4,31.4,37.0,32.6,28.3,94,86,68,30.17,30.01,9,5,18,0.12
2013-3-9,59.1,43.9,31.4,33.0,26.7,16.4,86,56,20,30.30,30.16,7,3,13,0.00
2013-3-10,51.8,38.4,26.8,40.8,33.3,24.8,96,83,61,30.36,30.29,4,1,8,0.00
2013-3-11,57.7,46.1,32.8,51.0,43.1,31.5,98,90,75,30.30,30.05,7,3,12,0.00
2013-3-12,55.4,52.7,43.2,54.2,49.8,36.8,97,90,78,30.06,29.71,13,6,20,0.38
2013-3-13,50.8,42.2,35.3,36.7,32.3,24.9,85,69,44,29.96,29.84,12,4,16,0.00
2013-3-14,42.8,37.5,31.4,25.2,20.7,17.5,70,51,37,30.03,29.93,12,7,23,0.00
2013-3-15,50.3,39.6,28.9,37.2,26.0,16.2,85,59,40,30.06,29.77,10,4,15,0.00
2013-3-16,45.3,39.4,33.3,36.9,33.7,30.1,94,81,59,29.90,29.70,7,2,12,0.00
2013-3-17,40.9,37.2,33.9,33.8,28.4,22.3,91,72,52,30.27,29.88,7,2,12,0.00
2013-3-18,46.6,38.7,32.2,45.8,31.6,20.7,97,77,59,30.34,29.84,6,2,11,0.72
2013-3-19,53.6,45.9,41.8,46.3,40.6,24.0,97,84,49,29.86,29.70,8,3,13,0.17
2013-3-20,49.9,41.4,30.8,34.7,25.5,19.7,80,55,31,29.96,29.78,12,5,22,0.00
2013-3-21,42.4,34.1,30.2,34.7,25.4,13.9,94,72,46,29.82,29.67,8,4,13,0.05
2013-3-22,42.7,35.7,29.7,24.7,21.6,14.5,69,57,44,29.95,29.81,11,6,20,0.01
2013-3-23,34.9,32.3,30.8,23.6,23.2,22.7,73,69,63,29.97,29.94,5,2,8,0.00